Weather at Addison Airport

Public forecast

Using degrees Fahrenheit for public forecast. Weather courtesy of forecast.io.

Current aviation weather report (METAR) for Addison Airport

Retrieved 2022/01/17 04:55 UTC (12 minutes ago):

KADS 170455Z AUTO 00000KT 10SM CLR 03/M04 A3011 RMK AO2 T00311036

Closest aviation forecast (TAF) to Addison Airport

Closest forecast is Dallas Love Field, 7.3 nm (13.6 km) S. Retrieved 2022-01-17 00:22 UTC (5 hours ago):

TAF KDAL 162320Z 1700/1724 33005KT P6SM SKC FM171500 05004KT P6SM SKC FM171900 15007KT P6SM SKC